header
chart

Reported and forecast weather at local airports

Important: not to be used for flight planning purposes.


EGBB METAR fetched   Saturday 23rd Mar @ 23:27:04
EGBB 232320Z 35002KT CAVOK 07/01 Q1033

EGCC METAR fetched   Saturday 23rd Mar @ 23:26:56
EGCC 232320Z AUTO 16002KT 9999 NCD 04/02 Q1033 NOSIG

EGGP METAR fetched   Saturday 23rd Mar @ 23:26:59
EGGP 232320Z 24002KT CAVOK 07/04 Q1033

EGNH METAR fetched   Saturday 23rd Mar @ 23:27:01
EGNH 232050Z 29005KT CAVOK 07/03 Q1034

EGNM METAR fetched   Saturday 23rd Mar @ 23:27:03
EGNM 232320Z 25004KT CAVOK 04/01 Q1032

EGOV METAR fetched   Saturday 23rd Mar @ 23:27:06
EGOV 232250Z AUTO 14006KT 9999 OVC100/// 06/03 Q1033


EGBB TAF fetched   Saturday 23rd Mar @ 23:27:05
TAF EGBB 231652Z 2318/2418 VRB03KT 9999 FEW040 BECMG 2409/2412 30010KT

EGCC TAF fetched   Saturday 23rd Mar @ 23:26:59
TAF EGCC 231656Z 2318/2424 VRB04KT 9999 FEW045 BECMG 2402/2405 8000 PROB30 2403/2407 4000 BR MIFG BECMG 2406/2409 28012KT 9999 TEMPO 2411/2424 29018G28KT TEMPO 2416/2424 7000 SHRA

EGGP TAF fetched   Saturday 23rd Mar @ 23:27:00
TAF EGGP 231656Z 2318/2418 VRB04KT 9999 FEW045 PROB30 2400/2406 9000 BECMG 2406/2409 28012KT BECMG 2409/2412 28018G28KT TEMPO 2416/2418 7000 SHRA

EGNM TAF fetched   Saturday 23rd Mar @ 23:27:03
TAF TAF EGNM 231704Z 2318/2418 27007KT 9999 SCT030 TEMPO 2404/2409 BKN013 BECMG 2409/2412 28017KT TEMPO 2412/2418 28021G33KT PROB30 TEMPO 2414/2418 7000 SHRA

EGOV TAF fetched   Saturday 23rd Mar @ 23:27:07
TAF TAF EGOV 190525Z 1906/1918 04008KT CAVOK PROB30 TEMPO 1906/1912 6000 SHRA TEMPO 1912/1915 4000 +SHRA SCT020 BKN030CB PROB30 TEMPO 1913/1915 VRBG20G30KT 2500 TSGR BKN012

Every effort is made to ensure that this information is free from errors but as it is provided by a third party the accuracy of the reports cannot be guaranteed.